createdAt,value
2022-10-22T00:01:37.492Z,63.65234
2022-10-22T00:03:37.294Z,65.02344
2022-10-22T00:05:36.970Z,63.87402
2022-10-22T00:07:37.835Z,64.16992
2022-10-22T00:09:37.379Z,63.76074
2022-10-22T00:11:37.579Z,63.63281
2022-10-22T00:13:37.118Z,63.24805
2022-10-22T00:15:37.419Z,63.61523
2022-10-22T00:16:44.192Z,62.9502
2022-10-22T00:18:44.133Z,63.34375
2022-10-22T00:20:44.269Z,63.42383
2022-10-22T00:22:44.381Z,63.66602
2022-10-22T00:24:44.215Z,63.23145
2022-10-22T00:26:44.314Z,62.5791
2022-10-22T00:28:44.233Z,63.89648
2022-10-22T00:30:44.288Z,63.78809
2022-10-22T00:32:21.067Z,63.69336
2022-10-22T00:34:21.155Z,64.06543
2022-10-22T00:36:21.178Z,63.67578
2022-10-22T00:38:21.131Z,63.98926
2022-10-22T00:40:21.044Z,63.90137
2022-10-22T00:42:21.074Z,64.25
2022-10-22T00:44:21.016Z,64.49707
2022-10-22T00:47:26.067Z,64.19336
2022-10-22T00:49:25.936Z,64.0791
2022-10-22T00:51:25.954Z,63.55566
2022-10-22T00:53:25.855Z,64.10352
2022-10-22T00:55:25.844Z,64.21875
2022-10-22T00:57:25.909Z,64.33887
2022-10-22T00:59:25.828Z,64.27344
2022-10-22T01:02:38.523Z,63.99414
2022-10-22T01:04:37.776Z,64.03125
2022-10-22T01:06:37.773Z,64.46289
2022-10-22T01:08:38.126Z,64.3877
2022-10-22T01:10:37.751Z,64.51855
2022-10-22T01:12:38.514Z,64.55176
2022-10-22T01:14:37.952Z,64.06641
2022-10-22T01:17:51.634Z,65.74609
2022-10-22T01:19:51.603Z,65.25684
2022-10-22T01:21:51.615Z,65.48242
2022-10-22T01:23:51.764Z,65.08594
2022-10-22T01:25:51.797Z,65.18848
2022-10-22T01:27:51.672Z,64.50488
2022-10-22T01:29:51.681Z,64.37402
2022-10-22T01:33:00.048Z,64.63477
2022-10-22T01:35:00.123Z,66.79102
2022-10-22T01:37:00.047Z,66.02539
2022-10-22T01:39:00.043Z,65.83594
2022-10-22T01:41:00.028Z,66.13867
2022-10-22T01:43:00.109Z,67.69434
2022-10-22T01:45:00.012Z,66.60547
2022-10-22T01:48:38.786Z,67.16113
2022-10-22T01:50:38.775Z,66.34863
2022-10-22T01:52:38.902Z,66.96094
2022-10-22T01:54:38.976Z,65.9209
2022-10-22T01:56:38.908Z,66.25879
2022-10-22T01:58:38.927Z,66.02441
2022-10-22T02:00:39.035Z,65.49707
2022-10-22T02:03:26.267Z,65.40723
2022-10-22T02:05:25.950Z,65.22559
2022-10-22T02:07:26.007Z,65.1543
2022-10-22T02:09:25.975Z,64.82715
2022-10-22T02:11:26.127Z,65.37402
2022-10-22T02:13:26.111Z,65.28125
2022-10-22T02:15:26.062Z,65.05078
2022-10-22T02:18:46.968Z,65.03027
2022-10-22T02:20:47.467Z,64.89746
2022-10-22T02:22:47.144Z,64.63574
2022-10-22T02:24:46.966Z,64.57324
2022-10-22T02:26:46.931Z,64.3457
2022-10-22T02:28:47.103Z,64.80469
2022-10-22T02:30:47.127Z,64.59277
2022-10-22T02:34:10.779Z,66.19531
2022-10-22T02:36:10.730Z,65.76074
2022-10-22T02:38:10.548Z,66.12207
2022-10-22T02:40:10.663Z,65.77441
2022-10-22T02:42:10.502Z,65.77441
2022-10-22T02:44:10.584Z,65.68555
2022-10-22T02:46:10.647Z,65.37109
2022-10-22T02:49:08.969Z,65.21875
2022-10-22T02:51:08.977Z,64.89551
2022-10-22T02:53:08.906Z,64.68848
2022-10-22T02:55:08.620Z,64.86133
2022-10-22T02:57:08.773Z,64.88086
2022-10-22T02:59:08.628Z,65.11035
2022-10-22T03:01:12.465Z,65.27051
2022-10-22T03:04:35.566Z,65.26172
2022-10-22T03:06:35.946Z,65.4707
2022-10-22T03:08:35.594Z,65.55469
2022-10-22T03:10:35.644Z,65.59668
2022-10-22T03:12:35.504Z,65.93164
2022-10-22T03:14:35.780Z,65.42285
2022-10-22T03:16:35.723Z,65.78613
2022-10-22T03:19:22.311Z,65.6377
2022-10-22T03:21:22.282Z,66.43164
2022-10-22T03:23:22.321Z,67.11621
2022-10-22T03:25:22.155Z,67.18652
2022-10-22T03:27:22.229Z,66.65527
2022-10-22T03:29:22.236Z,65.81641
2022-10-22T03:31:22.315Z,66.47461
2022-10-22T03:34:48.608Z,66.36719
2022-10-22T03:36:48.516Z,67.5625
2022-10-22T03:38:48.765Z,67.4043
2022-10-22T03:40:48.551Z,67.44043
2022-10-22T03:42:48.533Z,67.97461
2022-10-22T03:44:48.708Z,67.49805
2022-10-22T03:46:48.611Z,67.22461
2022-10-22T03:49:21.784Z,66.71582
2022-10-22T03:51:21.900Z,66.77539
2022-10-22T03:53:21.856Z,66.78125
2022-10-22T03:55:21.857Z,66.60449
2022-10-22T03:57:21.813Z,66.54102
2022-10-22T03:59:21.753Z,68.20605
2022-10-22T04:01:22.002Z,67.86328
2022-10-22T04:03:21.863Z,66.88867
2022-10-22T04:04:48.954Z,67.05078
2022-10-22T04:06:48.733Z,67.30859
2022-10-22T04:08:48.889Z,68.24121
2022-10-22T04:10:48.910Z,68.63281
2022-10-22T04:12:48.700Z,69.01074
2022-10-22T04:14:48.721Z,67.84277
2022-10-22T04:16:48.742Z,68.54688
2022-10-22T04:20:05.365Z,68.21875
2022-10-22T04:22:05.392Z,68.46094
2022-10-22T04:24:05.389Z,68.24121
2022-10-22T04:26:05.535Z,68.42285
2022-10-22T04:28:05.388Z,67.99512
2022-10-22T04:30:05.419Z,67.19629
2022-10-22T04:32:05.551Z,67.21973
2022-10-22T04:35:32.112Z,67.18555
2022-10-22T04:37:31.959Z,66.87695
2022-10-22T04:39:31.956Z,66.52148
2022-10-22T04:41:31.973Z,66.77734
2022-10-22T04:43:31.919Z,66.6875
2022-10-22T04:45:32.127Z,67.76465
2022-10-22T04:47:32.172Z,67.61133
2022-10-22T04:49:58.846Z,66.75879
2022-10-22T04:51:58.813Z,67.4209
2022-10-22T04:53:58.739Z,66.66113
2022-10-22T04:55:58.640Z,67.29004
2022-10-22T04:57:58.757Z,66.73828
2022-10-22T04:59:58.711Z,67.68848
2022-10-22T05:01:58.645Z,67.71387
2022-10-22T05:03:58.662Z,67.19238
2022-10-22T05:05:45.349Z,66.40723
2022-10-22T05:07:45.364Z,66.98145
2022-10-22T05:09:45.529Z,66.85645
2022-10-22T05:11:45.690Z,67.15039
2022-10-22T05:13:45.537Z,66.69727
2022-10-22T05:15:45.594Z,66.46582
2022-10-22T05:17:45.640Z,66.87793
2022-10-22T05:20:16.922Z,66.7832
2022-10-22T05:22:17.203Z,67.0957
2022-10-22T05:24:16.901Z,67.92773
2022-10-22T05:26:16.910Z,68.57617
2022-10-22T05:28:17.041Z,67.84766
2022-10-22T05:30:16.976Z,67.2334
2022-10-22T05:32:17.108Z,67.2627
2022-10-22T05:34:17.008Z,67.20215
2022-10-22T05:35:47.144Z,67.50879
2022-10-22T05:37:44.723Z,68.20996
2022-10-22T05:39:44.569Z,68.54004
2022-10-22T05:41:44.525Z,68.42285
2022-10-22T05:43:44.676Z,67.9707
2022-10-22T05:45:44.584Z,68.29102
2022-10-22T05:47:44.391Z,68.40039
2022-10-22T05:50:48.984Z,69.01172
2022-10-22T05:52:48.785Z,68.28809
2022-10-22T05:54:48.745Z,68.93945
2022-10-22T05:56:48.719Z,68.45508
2022-10-22T05:58:48.879Z,68.43164
2022-10-22T06:00:48.830Z,68.58496
2022-10-22T06:02:48.665Z,68.41406
2022-10-22T06:06:39.700Z,68.99707
2022-10-22T06:08:39.268Z,68.64746
2022-10-22T06:10:39.197Z,68.48242
2022-10-22T06:12:39.910Z,68.48535
2022-10-22T06:14:39.339Z,69.46387
2022-10-22T06:16:39.178Z,69.19922
2022-10-22T06:18:39.390Z,69.33203
2022-10-22T06:21:15.988Z,69.7959
2022-10-22T06:23:16.015Z,69.61035
2022-10-22T06:25:15.926Z,69.10156
2022-10-22T06:27:15.870Z,68.11621
2022-10-22T06:29:15.803Z,68.30371
2022-10-22T06:31:15.965Z,67.62109
2022-10-22T06:33:15.808Z,67.84863
2022-10-22T06:36:33.440Z,67.17773
2022-10-22T06:38:33.342Z,66.80469
2022-10-22T06:40:33.463Z,67.34473
2022-10-22T06:42:33.465Z,67.22852
2022-10-22T06:44:33.500Z,66.16016
2022-10-22T06:46:33.356Z,66.25684
2022-10-22T06:48:33.538Z,66.24902
2022-10-22T06:52:04.931Z,66.18457
2022-10-22T06:54:04.852Z,65.30176
2022-10-22T06:56:04.784Z,65.19336
2022-10-22T06:58:04.728Z,65.38086
2022-10-22T07:00:04.770Z,65.6084
2022-10-22T07:02:04.769Z,64.47852
2022-10-22T07:04:04.821Z,65.86621
2022-10-22T07:06:50.911Z,66.0625
2022-10-22T07:08:51.370Z,66.18457
2022-10-22T07:10:50.825Z,65.51367
2022-10-22T07:12:50.897Z,64.91699
2022-10-22T07:14:51.177Z,65.19531
2022-10-22T07:16:51.063Z,65.42676
2022-10-22T07:18:50.856Z,64.83398
2022-10-22T07:22:15.031Z,63.78223
2022-10-22T07:24:15.052Z,63.36133
2022-10-22T07:26:15.071Z,63.27832
2022-10-22T07:28:15.001Z,62.44434
2022-10-22T07:30:15.047Z,62.06055
2022-10-22T07:32:14.974Z,62.16406
2022-10-22T07:34:15.182Z,61.8877
2022-10-22T07:36:47.891Z,62.85449
2022-10-22T07:38:48.070Z,62.92188
2022-10-22T07:40:48.014Z,61.22461
2022-10-22T07:42:47.942Z,61.53125
2022-10-22T07:44:47.920Z,61.11328
2022-10-22T07:46:49.296Z,61.39941
2022-10-22T07:48:47.921Z,62.11816
2022-10-22T07:50:48.213Z,61.28809
2022-10-22T07:51:54.401Z,62.74316
2022-10-22T07:53:54.476Z,61.03125
2022-10-22T07:55:54.392Z,60.25879
2022-10-22T07:57:54.438Z,60.15039
2022-10-22T07:59:54.445Z,61.10156
2022-10-22T08:01:54.395Z,62.09375
2022-10-22T08:03:54.437Z,62.16113
2022-10-22T08:05:54.542Z,61.54883
2022-10-22T08:07:31.265Z,61.1709
2022-10-22T08:09:31.394Z,60.5752
2022-10-22T08:11:31.174Z,60.07227
2022-10-22T08:13:31.227Z,59.27051
2022-10-22T08:15:31.192Z,58.41504
2022-10-22T08:17:31.221Z,57.27344
2022-10-22T08:19:31.177Z,57.42578
2022-10-22T08:22:14.476Z,57.61426
2022-10-22T08:24:14.606Z,58.55469
2022-10-22T08:26:14.485Z,58.85742
2022-10-22T08:28:21.272Z,58.55957
2022-10-22T08:30:14.501Z,58.2998
2022-10-22T08:32:14.661Z,57.90137
2022-10-22T08:34:14.522Z,56.30859
2022-10-22T08:36:14.627Z,56.7041
2022-10-22T08:37:36.212Z,57.40625
2022-10-22T08:39:36.054Z,56.93848
2022-10-22T08:41:36.125Z,55.54199
2022-10-22T08:43:36.011Z,56.41016
2022-10-22T08:45:36.040Z,55.91797
2022-10-22T08:47:36.010Z,54.57129
2022-10-22T08:49:41.372Z,54.51172
2022-10-22T08:53:08.700Z,53.63867
2022-10-22T08:55:08.643Z,52.8291
2022-10-22T08:57:08.723Z,53.7959
2022-10-22T08:59:08.621Z,52.80566
2022-10-22T09:01:08.731Z,52.11914
2022-10-22T09:03:08.639Z,51.46582
2022-10-22T09:05:12.478Z,52.29297
2022-10-22T09:08:33.529Z,50.1543
2022-10-22T09:10:33.468Z,49.96387
2022-10-22T09:12:33.404Z,48.92676
2022-10-22T09:14:33.381Z,50.19727
2022-10-22T09:16:33.419Z,48.18457
2022-10-22T09:18:33.392Z,49.67871
2022-10-22T09:20:33.533Z,48.39063
2022-10-22T09:23:03.765Z,48.74902
2022-10-22T09:25:03.795Z,47.31641
2022-10-22T09:27:03.875Z,49.25684
2022-10-22T09:29:03.750Z,48.70313
2022-10-22T09:31:04.078Z,48.16211
2022-10-22T09:33:03.970Z,47.44922
2022-10-22T09:35:03.834Z,47.47754
2022-10-22T09:38:28.211Z,46.21094
2022-10-22T09:40:27.951Z,46.79688
2022-10-22T09:42:28.158Z,46.33789
2022-10-22T09:44:28.026Z,46.04102
2022-10-22T09:46:28.032Z,45.21387
2022-10-22T09:48:28.071Z,44.59082
2022-10-22T09:50:28.422Z,42.78711
2022-10-22T09:53:30.523Z,43.96094
2022-10-22T09:55:30.682Z,41.9248
2022-10-22T09:57:30.576Z,42.20313
2022-10-22T09:59:30.483Z,42.91895
2022-10-22T10:01:30.567Z,43.06055
2022-10-22T10:03:30.618Z,42.23828
2022-10-22T10:05:30.648Z,41.77637
2022-10-22T10:08:50.672Z,40.63184
2022-10-22T10:10:50.424Z,42.46973
2022-10-22T10:12:50.429Z,42.13379
2022-10-22T10:14:50.378Z,41.66016
2022-10-22T10:16:50.396Z,43.00293
2022-10-22T10:18:50.443Z,42.11914
2022-10-22T10:20:50.486Z,42.21777
2022-10-22T10:23:47.132Z,41.26074
2022-10-22T10:25:47.240Z,40.99902
2022-10-22T10:27:47.249Z,39.55859
2022-10-22T10:29:47.185Z,40.32617
2022-10-22T10:31:47.334Z,39.86035
2022-10-22T10:33:46.876Z,39.97949
2022-10-22T10:35:47.080Z,38.78223
2022-10-22T10:38:54.443Z,40.38281
2022-10-22T10:40:54.413Z,38.58496
2022-10-22T10:42:54.401Z,39.50195
2022-10-22T10:44:54.624Z,40.23438
2022-10-22T10:46:54.393Z,40.45996
2022-10-22T10:48:54.375Z,39.13574
2022-10-22T10:50:54.383Z,38.77246
2022-10-22T10:54:18.174Z,38.37988
2022-10-22T10:56:18.222Z,38.59375
2022-10-22T10:58:18.323Z,36.55273
2022-10-22T11:00:18.181Z,37.92969
2022-10-22T11:02:18.188Z,37.50391
2022-10-22T11:04:18.170Z,36.88574
2022-10-22T11:06:21.697Z,37.01855
2022-10-22T11:09:48.626Z,37.22949
2022-10-22T11:11:48.506Z,37.27539
2022-10-22T11:13:48.516Z,37.04395
2022-10-22T11:15:48.473Z,37.61523
2022-10-22T11:17:48.535Z,36.94238
2022-10-22T11:19:57.904Z,36.79395
2022-10-22T11:21:48.510Z,36.15039
2022-10-22T11:25:04.808Z,37.6416
2022-10-22T11:27:04.858Z,37.10645
2022-10-22T11:29:04.799Z,36.2627
2022-10-22T11:31:04.791Z,36.82324
2022-10-22T11:33:04.829Z,36.2959
2022-10-22T11:35:04.839Z,36.85645
2022-10-22T11:37:04.833Z,37.31836
2022-10-22T11:40:08.236Z,36.78125
2022-10-22T11:42:08.468Z,36.75391
2022-10-22T11:44:08.293Z,36.77734
2022-10-22T11:46:08.274Z,36.78125
2022-10-22T11:48:08.144Z,37.22168
2022-10-22T11:50:08.252Z,36.69824
2022-10-22T11:52:08.275Z,37.31543
2022-10-22T11:54:43.182Z,37.50098
2022-10-22T11:56:43.309Z,37.9502
2022-10-22T11:58:43.173Z,37.5293
2022-10-22T12:00:43.182Z,37.53223
2022-10-22T12:02:43.828Z,37.09375
2022-10-22T12:04:43.300Z,36.81738
2022-10-22T12:06:43.080Z,36.41797
2022-10-22T12:09:48.386Z,36.93164
2022-10-22T12:11:48.318Z,36.87891
2022-10-22T12:13:48.363Z,36.12109
2022-10-22T12:15:48.462Z,35.77344
2022-10-22T12:17:48.273Z,36.22754
2022-10-22T12:19:48.397Z,36.09277
2022-10-22T12:21:48.332Z,35.77051
2022-10-22T12:25:21.581Z,35.12598
2022-10-22T12:27:23.315Z,35.20703
2022-10-22T12:29:21.537Z,35.54688
2022-10-22T12:31:21.571Z,34.86914
2022-10-22T12:33:21.624Z,35.27051
2022-10-22T12:35:21.591Z,34.85352
2022-10-22T12:37:21.593Z,35.86133
2022-10-22T12:40:49.449Z,35.0127
2022-10-22T12:42:49.260Z,35.08789
2022-10-22T12:44:49.293Z,34.94531
2022-10-22T12:46:54.610Z,34.61426
2022-10-22T12:48:49.272Z,35.19824
2022-10-22T12:50:49.240Z,34.33203
2022-10-22T12:52:49.242Z,34.28516
2022-10-22T12:56:04.717Z,34.67969
2022-10-22T12:58:04.691Z,33.95313
2022-10-22T13:00:04.887Z,33.73145
2022-10-22T13:02:10.525Z,34.47852
2022-10-22T13:04:04.722Z,34.4873
2022-10-22T13:06:04.683Z,34.17285
2022-10-22T13:08:04.688Z,34.57715
2022-10-22T13:10:19.528Z,34.73242
2022-10-22T13:12:19.496Z,34.59961
2022-10-22T13:14:19.479Z,34.17383
2022-10-22T13:16:19.475Z,34.39453
2022-10-22T13:18:19.555Z,34.72949
2022-10-22T13:20:19.488Z,33.82617
2022-10-22T13:22:19.438Z,33.5625
2022-10-22T13:24:19.464Z,33.12207
2022-10-22T13:26:02.931Z,33.21484
2022-10-22T13:28:02.986Z,33.30078
2022-10-22T13:30:02.912Z,32.96484
2022-10-22T13:32:02.947Z,34.55176
2022-10-22T13:34:09.702Z,34.4375
2022-10-22T13:36:02.937Z,34.21484
2022-10-22T13:38:02.964Z,32.55176
2022-10-22T13:41:26.886Z,33.53613
2022-10-22T13:43:26.531Z,34.18945
2022-10-22T13:45:26.521Z,32.9834
2022-10-22T13:47:26.632Z,32.81641
2022-10-22T13:49:26.550Z,32.32617
2022-10-22T13:51:26.589Z,32.2666
2022-10-22T13:53:26.522Z,32.6416
2022-10-22T13:56:45.025Z,34.77148
2022-10-22T13:58:45.048Z,34.00586
2022-10-22T14:00:45.095Z,32.93945
2022-10-22T14:02:44.991Z,32.07813
2022-10-22T14:04:45.081Z,32.12695
2022-10-22T14:06:45.002Z,32.53711
2022-10-22T14:08:45.180Z,34.29297
2022-10-22T14:11:31.202Z,34.54492
2022-10-22T14:13:31.140Z,34.4668
2022-10-22T14:15:31.170Z,33.28516
2022-10-22T14:17:31.079Z,33.85938
2022-10-22T14:19:31.089Z,34.74512
2022-10-22T14:21:31.167Z,34.0791
2022-10-22T14:23:31.077Z,34.93457
2022-10-22T14:26:45.957Z,34.73926
2022-10-22T14:29:11.919Z,34.85352
2022-10-22T14:30:45.954Z,34.06348
2022-10-22T14:32:45.972Z,34.64551
2022-10-22T14:34:45.913Z,33.80371
2022-10-22T14:36:45.954Z,33.59961
2022-10-22T14:38:45.960Z,33.83008
2022-10-22T14:41:44.710Z,34.83594
2022-10-22T14:43:44.647Z,34.69922
2022-10-22T14:45:44.704Z,34.91309
2022-10-22T14:47:44.666Z,36.01367
2022-10-22T14:49:44.618Z,36.24414
2022-10-22T14:51:44.650Z,36.38672
2022-10-22T14:53:44.695Z,35.25488
2022-10-22T14:56:54.176Z,37.46387
2022-10-22T14:58:54.229Z,37.79199
2022-10-22T15:00:54.351Z,37.26758
2022-10-22T15:02:54.202Z,37.47949
2022-10-22T15:04:54.243Z,37.65137
2022-10-22T15:06:54.163Z,37.28027
2022-10-22T15:08:54.274Z,38.05078
2022-10-22T15:11:49.029Z,38.40039
2022-10-22T15:13:49.099Z,38.76563
2022-10-22T15:15:49.074Z,38.33008
2022-10-22T15:17:49.030Z,39.12305
2022-10-22T15:19:49.067Z,38.98926
2022-10-22T15:21:49.059Z,39.11426
2022-10-22T15:23:49.034Z,39.03125
2022-10-22T15:27:35.531Z,40.15723
2022-10-22T15:29:35.544Z,39.625
2022-10-22T15:31:35.586Z,39.42773
2022-10-22T15:33:35.701Z,39.44824
2022-10-22T15:35:35.558Z,39.8877
2022-10-22T15:37:35.589Z,39.84961
2022-10-22T15:39:35.496Z,40.16211
2022-10-22T15:42:46.428Z,40.79102
2022-10-22T15:44:46.375Z,40.68945
2022-10-22T15:46:46.601Z,40.83008
2022-10-22T15:48:46.453Z,41.10742
2022-10-22T15:50:46.521Z,41.20801
2022-10-22T15:52:46.634Z,41.95898
2022-10-22T15:54:46.472Z,41.75195
2022-10-22T15:57:15.230Z,41.73926
2022-10-22T15:59:15.146Z,42.09961
2022-10-22T16:01:15.306Z,41.82129
2022-10-22T16:03:14.981Z,42.02637
2022-10-22T16:05:14.913Z,42.24316
2022-10-22T16:07:15.200Z,42.14844
2022-10-22T16:09:15.286Z,42.78711
2022-10-22T16:11:14.931Z,42.50391
2022-10-22T16:12:37.642Z,43.16992
2022-10-22T16:14:37.600Z,43.41992
2022-10-22T16:16:37.654Z,42.86621
2022-10-22T16:18:37.600Z,43.35156
2022-10-22T16:20:37.647Z,44.09375
2022-10-22T16:22:37.604Z,43.69824
2022-10-22T16:24:37.614Z,43.04688
2022-10-22T16:27:58.422Z,43.7666
2022-10-22T16:29:58.400Z,44.15039
2022-10-22T16:31:58.461Z,44.13965
2022-10-22T16:33:58.702Z,43.69141
2022-10-22T16:35:58.382Z,44.04492
2022-10-22T16:37:58.446Z,44.32715
2022-10-22T16:39:58.408Z,44.10254
2022-10-22T16:43:07.997Z,44.05469
2022-10-22T16:45:08.175Z,43.29492
2022-10-22T16:47:08.078Z,43.60156
2022-10-22T16:49:07.927Z,43.95313
2022-10-22T16:51:07.966Z,43.78906
2022-10-22T16:53:08.004Z,44.4375
2022-10-22T16:55:07.945Z,44.78711
2022-10-22T16:58:46.483Z,43.62207
2022-10-22T17:00:46.878Z,43.40039
2022-10-22T17:02:46.502Z,43.54395
2022-10-22T17:04:46.465Z,43.84668
2022-10-22T17:06:46.484Z,43.60449
2022-10-22T17:08:46.604Z,43.86914
2022-10-22T17:10:46.546Z,43.82617
2022-10-22T17:13:50.356Z,43.48926
2022-10-22T17:15:50.596Z,43.59473
2022-10-22T17:17:50.345Z,43.72168
2022-10-22T17:19:50.423Z,43.95215
2022-10-22T17:21:50.426Z,43.71875
2022-10-22T17:23:50.462Z,43.71777
2022-10-22T17:25:50.350Z,43.89355
2022-10-22T17:28:28.731Z,43.79883
2022-10-22T17:30:28.680Z,43.92383
2022-10-22T17:32:28.760Z,44.2666
2022-10-22T17:34:28.831Z,43.80469
2022-10-22T17:36:35.071Z,43.92578
2022-10-22T17:38:28.837Z,44.37012
2022-10-22T17:40:28.798Z,44.04785
2022-10-22T17:43:49.412Z,44.84961
2022-10-22T17:45:49.443Z,45.04297
2022-10-22T17:47:49.593Z,44.88086
2022-10-22T17:49:49.602Z,44.94824
2022-10-22T17:51:49.854Z,44.85449
2022-10-22T17:53:49.632Z,44.83301
2022-10-22T17:55:49.581Z,45.03516
2022-10-22T17:59:26.510Z,45.35254
2022-10-22T18:01:26.876Z,45.43945
2022-10-22T18:03:26.795Z,45.54199
2022-10-22T18:05:26.613Z,45.67773
2022-10-22T18:07:26.620Z,46.13867
2022-10-22T18:09:26.706Z,46.62793
2022-10-22T18:11:26.624Z,46.03516
2022-10-22T18:14:08.167Z,48.90527
2022-10-22T18:16:08.476Z,49.41992
2022-10-22T18:18:08.356Z,48.51563
2022-10-22T18:20:08.273Z,48.28613
2022-10-22T18:22:08.380Z,48.18164
2022-10-22T18:24:08.233Z,47.90332
2022-10-22T18:26:08.239Z,47.89648
2022-10-22T18:29:39.766Z,48.16797
2022-10-22T18:31:39.721Z,48.30371
2022-10-22T18:33:39.570Z,48.33105
2022-10-22T18:35:39.584Z,48.79102
2022-10-22T18:37:40.428Z,48.69531
2022-10-22T18:39:39.618Z,48.7168
2022-10-22T18:41:39.565Z,48.60059
2022-10-22T18:44:28.055Z,49.24512
2022-10-22T18:46:27.590Z,49.07715
2022-10-22T18:48:27.465Z,49.19824
2022-10-22T18:50:27.723Z,48.89453
2022-10-22T18:52:27.475Z,49.04297
2022-10-22T18:54:27.467Z,49.0752
2022-10-22T18:56:27.539Z,49.07422
2022-10-22T18:59:59.221Z,49.70215
2022-10-22T19:01:53.349Z,49.77637
2022-10-22T19:03:53.486Z,49.66602
2022-10-22T19:05:53.249Z,49.96094
2022-10-22T19:07:53.313Z,49.86523
2022-10-22T19:09:53.306Z,49.83008
2022-10-22T19:11:53.236Z,50.30176
2022-10-22T19:14:49.918Z,50.86914
2022-10-22T19:16:49.942Z,51.06543
2022-10-22T19:18:49.962Z,51.42871
2022-10-22T19:20:49.983Z,51.01465
2022-10-22T19:22:50.102Z,51.0127
2022-10-22T19:24:49.938Z,50.95508
2022-10-22T19:26:50.124Z,50.8291
2022-10-22T19:29:33.351Z,51.04199
2022-10-22T19:31:33.521Z,51.23535
2022-10-22T19:33:33.467Z,50.92383
2022-10-22T19:35:33.607Z,51.26074
2022-10-22T19:37:33.453Z,51.16406
2022-10-22T19:39:33.549Z,51.21875
2022-10-22T19:41:33.616Z,51.55957
2022-10-22T19:43:33.587Z,51.52051
2022-10-22T19:45:21.504Z,51.71973
2022-10-22T19:47:21.597Z,51.51172
2022-10-22T19:49:23.384Z,51.95996
2022-10-22T19:51:21.603Z,51.98145
2022-10-22T19:53:21.479Z,51.74707
2022-10-22T19:55:21.484Z,51.66895
2022-10-22T19:57:21.535Z,51.83789
2022-10-22T20:00:19.170Z,52.2334
2022-10-22T20:02:19.104Z,52.21191
2022-10-22T20:04:18.996Z,52.93652
2022-10-22T20:06:18.986Z,52.20313
2022-10-22T20:08:18.943Z,52.76758
2022-10-22T20:10:18.900Z,52.51074
2022-10-22T20:12:19.006Z,52.4834
2022-10-22T20:15:27.923Z,52.6875
2022-10-22T20:17:27.998Z,52.8418
2022-10-22T20:19:27.881Z,53.24902
2022-10-22T20:21:27.787Z,53.85547
2022-10-22T20:23:27.824Z,53.34375
2022-10-22T20:25:27.921Z,53.55957
2022-10-22T20:27:27.833Z,53.5
2022-10-22T20:31:03.166Z,53.60547
2022-10-22T20:33:03.206Z,53.51953
2022-10-22T20:35:03.065Z,53.78516
2022-10-22T20:37:03.082Z,53.85059
2022-10-22T20:39:03.158Z,53.92578
2022-10-22T20:41:03.121Z,53.6875
2022-10-22T20:43:03.065Z,53.68945
2022-10-22T20:45:40.841Z,54.50195
2022-10-22T20:47:51.487Z,54.11328
2022-10-22T20:49:40.702Z,54.44043
2022-10-22T20:51:40.693Z,53.91016
2022-10-22T20:53:40.691Z,54.1084
2022-10-22T20:55:40.728Z,54.98438
2022-10-22T20:57:41.351Z,54.87988
2022-10-22T21:01:02.960Z,54.52734
2022-10-22T21:03:03.116Z,55.05859
2022-10-22T21:05:02.946Z,55.06934
2022-10-22T21:07:02.756Z,54.92676
2022-10-22T21:09:02.962Z,55.00293
2022-10-22T21:11:02.993Z,55.2207
2022-10-22T21:13:02.909Z,55.20996
2022-10-22T21:15:44.866Z,55.06348
2022-10-22T21:17:44.791Z,55.33301
2022-10-22T21:19:44.661Z,54.70215
2022-10-22T21:21:44.622Z,55.44336
2022-10-22T21:23:44.581Z,55.60449
2022-10-22T21:25:44.576Z,55.125
2022-10-22T21:27:44.639Z,55.4248
2022-10-22T21:29:44.600Z,55.76758
2022-10-22T21:31:28.928Z,56.7627
2022-10-22T21:33:28.932Z,56.29004
2022-10-22T21:35:28.918Z,56.25
2022-10-22T21:37:29.108Z,55.91504
2022-10-22T21:39:29.006Z,56.41016
2022-10-22T21:41:29.089Z,55.99219
2022-10-22T21:43:29.100Z,55.80371
2022-10-22T21:46:11.419Z,56.19141
2022-10-22T21:48:11.438Z,56.18066
2022-10-22T21:50:11.403Z,56.20215
2022-10-22T21:52:11.453Z,55.89648
2022-10-22T21:54:11.382Z,55.84766
2022-10-22T21:56:11.392Z,55.90723
2022-10-22T21:58:11.404Z,55.75391
2022-10-22T22:01:23.499Z,55.99902
2022-10-22T22:03:23.214Z,56.31738
2022-10-22T22:05:23.432Z,56.58008
2022-10-22T22:07:23.268Z,56.25684
2022-10-22T22:09:23.432Z,56.34375
2022-10-22T22:11:23.232Z,56.10547
2022-10-22T22:13:23.219Z,56.15723
2022-10-22T22:17:00.992Z,56.22266
2022-10-22T22:19:01.083Z,56.41016
2022-10-22T22:21:00.936Z,56.62012
2022-10-22T22:23:00.999Z,56.97266
2022-10-22T22:25:00.962Z,56.70215
2022-10-22T22:27:00.934Z,57.43359
2022-10-22T22:29:00.917Z,57.20801
2022-10-22T22:31:41.123Z,57.34766
2022-10-22T22:33:41.135Z,57.48242
2022-10-22T22:35:41.172Z,56.81152
2022-10-22T22:37:41.973Z,57.05762
2022-10-22T22:39:41.139Z,57.91211
2022-10-22T22:41:41.126Z,57.80273
2022-10-22T22:43:41.090Z,58.55957
2022-10-22T22:46:45.735Z,57.90625
2022-10-22T22:48:45.712Z,58.42188
2022-10-22T22:50:45.689Z,59.2666
2022-10-22T22:52:45.668Z,59.06055
2022-10-22T22:54:45.676Z,59.16992
2022-10-22T22:56:45.702Z,58.55371
2022-10-22T22:58:45.821Z,59.125
2022-10-22T23:00:45.877Z,59.30957
2022-10-22T23:02:12.465Z,59.3877
2022-10-22T23:04:12.400Z,59.11328
2022-10-22T23:06:12.336Z,58.47949
2022-10-22T23:08:12.314Z,58.43457
2022-10-22T23:10:12.371Z,58.54785
2022-10-22T23:12:12.371Z,58.2793
2022-10-22T23:14:12.364Z,58.6582
2022-10-22T23:17:53.491Z,59.3584
2022-10-22T23:19:53.469Z,58.9248
2022-10-22T23:21:53.527Z,59.02734
2022-10-22T23:23:53.578Z,59.10938
2022-10-22T23:25:53.644Z,58.90918
2022-10-22T23:27:53.498Z,59.59375
2022-10-22T23:29:53.562Z,59.34277
2022-10-22T23:32:28.288Z,58.90137
2022-10-22T23:34:28.353Z,59.35645
2022-10-22T23:36:28.481Z,59.52637
2022-10-22T23:38:28.499Z,60.46777
2022-10-22T23:40:28.349Z,60.45996
2022-10-22T23:42:28.462Z,59.9668
2022-10-22T23:44:28.335Z,59.37207
2022-10-22T23:47:26.203Z,59.13184
2022-10-22T23:49:26.835Z,59.27051
2022-10-22T23:51:26.310Z,59.77637
2022-10-22T23:53:26.314Z,59.66113
2022-10-22T23:55:26.323Z,59.71777
2022-10-22T23:57:26.195Z,59.77832
2022-10-22T23:59:26.286Z,59.9502
